sensor_id;sensor_type;location;lat;lon;timestamp;temperature;humidity
33803;DHT22;20110;53.120;5.786;2023-05-10T00:00:34;10.20;99.90
33803;DHT22;20110;53.120;5.786;2023-05-10T00:03:00;10.20;99.90
33803;DHT22;20110;53.120;5.786;2023-05-10T00:05:26;10.20;99.90
33803;DHT22;20110;53.120;5.786;2023-05-10T00:07:51;10.20;99.90
33803;DHT22;20110;53.120;5.786;2023-05-10T00:10:17;10.20;99.90
33803;DHT22;20110;53.120;5.786;2023-05-10T00:12:43;10.10;99.90
33803;DHT22;20110;53.120;5.786;2023-05-10T00:15:09;10.10;99.90
33803;DHT22;20110;53.120;5.786;2023-05-10T00:17:35;10.10;99.90
33803;DHT22;20110;53.120;5.786;2023-05-10T00:20:01;10.10;99.90
33803;DHT22;20110;53.120;5.786;2023-05-10T00:22:27;10.10;99.90
33803;DHT22;20110;53.120;5.786;2023-05-10T00:24:53;10.10;99.90
33803;DHT22;20110;53.120;5.786;2023-05-10T00:27:19;10.10;99.90
33803;DHT22;20110;53.120;5.786;2023-05-10T00:29:44;10.10;99.90
33803;DHT22;20110;53.120;5.786;2023-05-10T00:32:10;10.10;99.90
33803;DHT22;20110;53.120;5.786;2023-05-10T00:34:36;10.00;99.90
33803;DHT22;20110;53.120;5.786;2023-05-10T00:37:02;10.00;99.90
33803;DHT22;20110;53.120;5.786;2023-05-10T00:39:28;10.10;99.90
33803;DHT22;20110;53.120;5.786;2023-05-10T00:41:54;10.10;99.90
33803;DHT22;20110;53.120;5.786;2023-05-10T00:44:20;10.10;99.90
33803;DHT22;20110;53.120;5.786;2023-05-10T00:46:47;10.10;99.90
33803;DHT22;20110;53.120;5.786;2023-05-10T00:49:13;10.20;99.90
33803;DHT22;20110;53.120;5.786;2023-05-10T00:51:40;10.20;99.90
33803;DHT22;20110;53.120;5.786;2023-05-10T00:54:11;10.20;99.90
33803;DHT22;20110;53.120;5.786;2023-05-10T00:56:39;10.20;99.90
33803;DHT22;20110;53.120;5.786;2023-05-10T00:59:06;10.10;99.90
33803;DHT22;20110;53.120;5.786;2023-05-10T01:01:34;10.20;99.90
33803;DHT22;20110;53.120;5.786;2023-05-10T01:04:01;10.20;99.90
33803;DHT22;20110;53.120;5.786;2023-05-10T01:06:29;10.20;99.90
33803;DHT22;20110;53.120;5.786;2023-05-10T01:08:55;10.10;99.90
33803;DHT22;20110;53.120;5.786;2023-05-10T01:11:21;10.20;99.90
33803;DHT22;20110;53.120;5.786;2023-05-10T01:13:52;10.20;99.90
33803;DHT22;20110;53.120;5.786;2023-05-10T01:16:22;10.20;99.90
33803;DHT22;20110;53.120;5.786;2023-05-10T01:18:49;10.20;99.90
33803;DHT22;20110;53.120;5.786;2023-05-10T01:28:07;10.10;99.90
33803;DHT22;20110;53.120;5.786;2023-05-10T01:34:09;10.10;99.90
33803;DHT22;20110;53.120;5.786;2023-05-10T01:36:55;10.10;99.90
33803;DHT22;20110;53.120;5.786;2023-05-10T01:39:55;10.20;99.90
33803;DHT22;20110;53.120;5.786;2023-05-10T01:42:50;10.20;99.90
33803;DHT22;20110;53.120;5.786;2023-05-10T01:45:30;10.20;99.90
33803;DHT22;20110;53.120;5.786;2023-05-10T01:48:09;10.10;99.90
33803;DHT22;20110;53.120;5.786;2023-05-10T01:50:38;10.10;99.90
33803;DHT22;20110;53.120;5.786;2023-05-10T01:53:09;10.10;99.90
33803;DHT22;20110;53.120;5.786;2023-05-10T01:55:52;10.10;99.90
33803;DHT22;20110;53.120;5.786;2023-05-10T01:58:24;10.10;99.90
33803;DHT22;20110;53.120;5.786;2023-05-10T02:00:55;10.10;99.90
33803;DHT22;20110;53.120;5.786;2023-05-10T02:03:27;10.10;99.90
33803;DHT22;20110;53.120;5.786;2023-05-10T02:05:56;10.10;99.90
33803;DHT22;20110;53.120;5.786;2023-05-10T02:08:23;10.10;99.90
33803;DHT22;20110;53.120;5.786;2023-05-10T02:10:53;10.10;99.90
33803;DHT22;20110;53.120;5.786;2023-05-10T02:13:21;10.10;99.90
33803;DHT22;20110;53.120;5.786;2023-05-10T02:15:50;10.10;99.90
33803;DHT22;20110;53.120;5.786;2023-05-10T02:18:18;10.20;99.90
33803;DHT22;20110;53.120;5.786;2023-05-10T02:20:46;10.20;99.90
33803;DHT22;20110;53.120;5.786;2023-05-10T02:23:13;10.20;99.90
33803;DHT22;20110;53.120;5.786;2023-05-10T02:25:40;10.10;99.90
33803;DHT22;20110;53.120;5.786;2023-05-10T02:28:08;10.10;99.90
33803;DHT22;20110;53.120;5.786;2023-05-10T02:30:37;10.10;99.90
33803;DHT22;20110;53.120;5.786;2023-05-10T02:33:05;10.10;99.90
33803;DHT22;20110;53.120;5.786;2023-05-10T02:35:32;10.10;99.90
33803;DHT22;20110;53.120;5.786;2023-05-10T02:37:59;10.10;99.90
33803;DHT22;20110;53.120;5.786;2023-05-10T02:40:28;10.20;99.90
33803;DHT22;20110;53.120;5.786;2023-05-10T02:42:56;10.00;99.90
33803;DHT22;20110;53.120;5.786;2023-05-10T02:45:28;10.00;99.90
33803;DHT22;20110;53.120;5.786;2023-05-10T02:47:56;10.10;99.90
33803;DHT22;20110;53.120;5.786;2023-05-10T02:50:27;10.20;99.90
33803;DHT22;20110;53.120;5.786;2023-05-10T02:52:59;10.10;99.90
33803;DHT22;20110;53.120;5.786;2023-05-10T02:55:32;10.10;99.90
33803;DHT22;20110;53.120;5.786;2023-05-10T02:58:04;10.20;99.90
33803;DHT22;20110;53.120;5.786;2023-05-10T03:00:31;10.10;99.90
33803;DHT22;20110;53.120;5.786;2023-05-10T03:02:58;10.20;99.90
33803;DHT22;20110;53.120;5.786;2023-05-10T03:05:24;10.20;99.90
33803;DHT22;20110;53.120;5.786;2023-05-10T03:07:50;10.20;99.90
33803;DHT22;20110;53.120;5.786;2023-05-10T03:10:17;10.10;99.90
33803;DHT22;20110;53.120;5.786;2023-05-10T03:16:25;10.20;99.90
33803;DHT22;20110;53.120;5.786;2023-05-10T03:19:24;10.10;99.90
33803;DHT22;20110;53.120;5.786;2023-05-10T03:21:59;10.20;99.90
33803;DHT22;20110;53.120;5.786;2023-05-10T03:24:35;10.10;99.90
33803;DHT22;20110;53.120;5.786;2023-05-10T03:27:03;10.20;99.90
33803;DHT22;20110;53.120;5.786;2023-05-10T03:29:31;10.20;99.90
33803;DHT22;20110;53.120;5.786;2023-05-10T03:32:01;10.20;99.90
33803;DHT22;20110;53.120;5.786;2023-05-10T03:34:30;10.20;99.90
33803;DHT22;20110;53.120;5.786;2023-05-10T03:36:59;10.20;99.90
33803;DHT22;20110;53.120;5.786;2023-05-10T03:39:25;10.30;99.90
33803;DHT22;20110;53.120;5.786;2023-05-10T03:41:51;10.30;99.90
33803;DHT22;20110;53.120;5.786;2023-05-10T03:44:17;10.30;99.90
33803;DHT22;20110;53.120;5.786;2023-05-10T03:46:43;10.40;99.90
33803;DHT22;20110;53.120;5.786;2023-05-10T03:49:08;10.30;99.90
33803;DHT22;20110;53.120;5.786;2023-05-10T03:51:34;10.30;99.90
33803;DHT22;20110;53.120;5.786;2023-05-10T03:54:00;10.30;99.90
33803;DHT22;20110;53.120;5.786;2023-05-10T03:56:26;10.30;99.90
33803;DHT22;20110;53.120;5.786;2023-05-10T03:58:52;10.30;99.90
33803;DHT22;20110;53.120;5.786;2023-05-10T04:01:18;10.30;99.90
33803;DHT22;20110;53.120;5.786;2023-05-10T04:03:43;10.30;99.90
33803;DHT22;20110;53.120;5.786;2023-05-10T04:06:10;10.40;99.90
33803;DHT22;20110;53.120;5.786;2023-05-10T04:08:37;10.30;99.90
33803;DHT22;20110;53.120;5.786;2023-05-10T04:11:10;10.30;99.90
33803;DHT22;20110;53.120;5.786;2023-05-10T04:13:37;10.30;99.90
33803;DHT22;20110;53.120;5.786;2023-05-10T04:16:04;10.30;99.90
33803;DHT22;20110;53.120;5.786;2023-05-10T04:18:30;10.30;99.90
33803;DHT22;20110;53.120;5.786;2023-05-10T04:20:57;10.30;99.90
33803;DHT22;20110;53.120;5.786;2023-05-10T04:23:23;10.30;99.90
33803;DHT22;20110;53.120;5.786;2023-05-10T04:25:48;10.30;99.90
33803;DHT22;20110;53.120;5.786;2023-05-10T04:28:14;10.30;99.90
33803;DHT22;20110;53.120;5.786;2023-05-10T04:30:40;10.30;99.90
33803;DHT22;20110;53.120;5.786;2023-05-10T04:33:06;10.30;99.90
33803;DHT22;20110;53.120;5.786;2023-05-10T04:35:32;10.30;99.90
33803;DHT22;20110;53.120;5.786;2023-05-10T04:37:59;10.30;99.90
33803;DHT22;20110;53.120;5.786;2023-05-10T04:40:25;10.30;99.90
33803;DHT22;20110;53.120;5.786;2023-05-10T04:42:51;10.30;99.90
33803;DHT22;20110;53.120;5.786;2023-05-10T04:45:17;10.30;99.90
33803;DHT22;20110;53.120;5.786;2023-05-10T04:47:43;10.30;99.90
33803;DHT22;20110;53.120;5.786;2023-05-10T04:50:09;10.40;99.90
33803;DHT22;20110;53.120;5.786;2023-05-10T04:52:35;10.40;99.90
33803;DHT22;20110;53.120;5.786;2023-05-10T04:55:01;10.40;99.90
33803;DHT22;20110;53.120;5.786;2023-05-10T04:57:27;10.40;99.90
33803;DHT22;20110;53.120;5.786;2023-05-10T04:59:53;10.40;99.90
33803;DHT22;20110;53.120;5.786;2023-05-10T05:02:19;10.40;99.90
33803;DHT22;20110;53.120;5.786;2023-05-10T05:04:45;10.40;99.90
33803;DHT22;20110;53.120;5.786;2023-05-10T05:07:10;10.30;99.90
33803;DHT22;20110;53.120;5.786;2023-05-10T05:09:36;10.40;99.90
33803;DHT22;20110;53.120;5.786;2023-05-10T05:12:02;10.40;99.90
33803;DHT22;20110;53.120;5.786;2023-05-10T05:14:28;10.40;99.90
33803;DHT22;20110;53.120;5.786;2023-05-10T05:16:54;10.40;99.90
33803;DHT22;20110;53.120;5.786;2023-05-10T05:19:20;10.40;99.90
33803;DHT22;20110;53.120;5.786;2023-05-10T05:21:46;10.40;99.90
33803;DHT22;20110;53.120;5.786;2023-05-10T05:24:11;10.30;99.90
33803;DHT22;20110;53.120;5.786;2023-05-10T05:26:38;10.40;99.90
33803;DHT22;20110;53.120;5.786;2023-05-10T05:29:04;10.30;99.90
33803;DHT22;20110;53.120;5.786;2023-05-10T05:31:30;10.30;99.90
33803;DHT22;20110;53.120;5.786;2023-05-10T05:33:56;10.40;99.90
33803;DHT22;20110;53.120;5.786;2023-05-10T05:36:22;10.30;99.90
33803;DHT22;20110;53.120;5.786;2023-05-10T05:38:47;10.30;99.90
33803;DHT22;20110;53.120;5.786;2023-05-10T05:41:13;10.30;99.90
33803;DHT22;20110;53.120;5.786;2023-05-10T05:43:39;10.30;99.90
33803;DHT22;20110;53.120;5.786;2023-05-10T05:46:05;10.30;99.90
33803;DHT22;20110;53.120;5.786;2023-05-10T05:48:31;10.30;99.90
33803;DHT22;20110;53.120;5.786;2023-05-10T05:50:57;10.30;99.90
33803;DHT22;20110;53.120;5.786;2023-05-10T05:53:23;10.30;99.90
33803;DHT22;20110;53.120;5.786;2023-05-10T05:55:57;10.40;99.90
33803;DHT22;20110;53.120;5.786;2023-05-10T05:58:24;10.40;99.90
33803;DHT22;20110;53.120;5.786;2023-05-10T06:00:51;10.40;99.90
33803;DHT22;20110;53.120;5.786;2023-05-10T06:03:18;10.40;99.90
33803;DHT22;20110;53.120;5.786;2023-05-10T06:05:45;10.50;99.90
33803;DHT22;20110;53.120;5.786;2023-05-10T06:08:11;10.40;99.90
33803;DHT22;20110;53.120;5.786;2023-05-10T06:10:37;10.50;99.90
33803;DHT22;20110;53.120;5.786;2023-05-10T06:13:03;10.50;99.90
33803;DHT22;20110;53.120;5.786;2023-05-10T06:15:29;10.50;99.90
33803;DHT22;20110;53.120;5.786;2023-05-10T06:17:54;10.40;99.90
33803;DHT22;20110;53.120;5.786;2023-05-10T06:20:20;10.50;99.90
33803;DHT22;20110;53.120;5.786;2023-05-10T06:22:46;10.50;99.90
33803;DHT22;20110;53.120;5.786;2023-05-10T06:25:12;10.50;99.90
33803;DHT22;20110;53.120;5.786;2023-05-10T06:27:39;10.50;99.90
33803;DHT22;20110;53.120;5.786;2023-05-10T06:30:06;10.50;99.90
33803;DHT22;20110;53.120;5.786;2023-05-10T06:32:33;10.60;99.90
33803;DHT22;20110;53.120;5.786;2023-05-10T06:34:59;10.60;99.90
33803;DHT22;20110;53.120;5.786;2023-05-10T06:37:25;10.60;99.90
33803;DHT22;20110;53.120;5.786;2023-05-10T06:39:50;10.60;99.90
33803;DHT22;20110;53.120;5.786;2023-05-10T06:42:16;10.60;99.90
33803;DHT22;20110;53.120;5.786;2023-05-10T06:44:42;10.50;99.90
33803;DHT22;20110;53.120;5.786;2023-05-10T06:47:09;10.50;99.90
33803;DHT22;20110;53.120;5.786;2023-05-10T06:49:35;10.40;99.90
33803;DHT22;20110;53.120;5.786;2023-05-10T06:52:00;10.40;99.90
33803;DHT22;20110;53.120;5.786;2023-05-10T06:54:26;10.40;99.90
33803;DHT22;20110;53.120;5.786;2023-05-10T06:56:52;10.40;99.90
33803;DHT22;20110;53.120;5.786;2023-05-10T06:59:18;10.50;99.90
33803;DHT22;20110;53.120;5.786;2023-05-10T07:01:44;10.50;99.90
33803;DHT22;20110;53.120;5.786;2023-05-10T07:04:10;10.50;99.90
33803;DHT22;20110;53.120;5.786;2023-05-10T07:06:36;10.50;99.90
33803;DHT22;20110;53.120;5.786;2023-05-10T07:09:02;10.40;99.90
33803;DHT22;20110;53.120;5.786;2023-05-10T07:11:28;10.40;99.90
33803;DHT22;20110;53.120;5.786;2023-05-10T07:13:54;10.50;99.90
33803;DHT22;20110;53.120;5.786;2023-05-10T07:16:19;10.60;99.90
33803;DHT22;20110;53.120;5.786;2023-05-10T07:18:46;10.50;99.90
33803;DHT22;20110;53.120;5.786;2023-05-10T07:21:12;10.60;99.90
33803;DHT22;20110;53.120;5.786;2023-05-10T07:23:38;10.70;99.90
33803;DHT22;20110;53.120;5.786;2023-05-10T07:26:04;10.70;99.90
33803;DHT22;20110;53.120;5.786;2023-05-10T07:28:30;10.80;99.90
33803;DHT22;20110;53.120;5.786;2023-05-10T07:30:55;10.80;99.90
33803;DHT22;20110;53.120;5.786;2023-05-10T07:33:22;10.80;99.90
33803;DHT22;20110;53.120;5.786;2023-05-10T07:35:47;10.70;99.90
33803;DHT22;20110;53.120;5.786;2023-05-10T07:38:13;10.70;99.90
33803;DHT22;20110;53.120;5.786;2023-05-10T07:40:39;10.70;99.90
33803;DHT22;20110;53.120;5.786;2023-05-10T07:43:05;10.90;99.90
33803;DHT22;20110;53.120;5.786;2023-05-10T07:45:32;10.90;99.90
33803;DHT22;20110;53.120;5.786;2023-05-10T07:47:58;11.10;99.90
33803;DHT22;20110;53.120;5.786;2023-05-10T07:50:24;11.10;99.90
33803;DHT22;20110;53.120;5.786;2023-05-10T07:52:50;11.10;99.90
33803;DHT22;20110;53.120;5.786;2023-05-10T07:55:18;11.00;99.90
33803;DHT22;20110;53.120;5.786;2023-05-10T07:57:46;11.10;99.90
33803;DHT22;20110;53.120;5.786;2023-05-10T08:00:13;11.20;99.90
33803;DHT22;20110;53.120;5.786;2023-05-10T08:02:43;11.20;99.90
33803;DHT22;20110;53.120;5.786;2023-05-10T08:05:09;11.40;99.90
33803;DHT22;20110;53.120;5.786;2023-05-10T08:07:35;11.50;99.90
33803;DHT22;20110;53.120;5.786;2023-05-10T08:10:01;11.40;99.90
33803;DHT22;20110;53.120;5.786;2023-05-10T08:12:28;11.50;99.90
33803;DHT22;20110;53.120;5.786;2023-05-10T08:14:54;11.60;99.90
33803;DHT22;20110;53.120;5.786;2023-05-10T08:17:19;11.60;99.90
33803;DHT22;20110;53.120;5.786;2023-05-10T08:19:47;11.70;99.90
33803;DHT22;20110;53.120;5.786;2023-05-10T08:22:12;11.60;99.90
33803;DHT22;20110;53.120;5.786;2023-05-10T08:24:38;11.80;99.90
33803;DHT22;20110;53.120;5.786;2023-05-10T08:27:08;12.00;99.90
33803;DHT22;20110;53.120;5.786;2023-05-10T08:29:34;12.10;99.90
33803;DHT22;20110;53.120;5.786;2023-05-10T08:32:00;12.20;99.90
33803;DHT22;20110;53.120;5.786;2023-05-10T08:34:29;12.30;99.90
33803;DHT22;20110;53.120;5.786;2023-05-10T08:36:56;12.30;99.90
33803;DHT22;20110;53.120;5.786;2023-05-10T08:39:23;12.20;99.90
33803;DHT22;20110;53.120;5.786;2023-05-10T08:41:51;12.20;99.90
33803;DHT22;20110;53.120;5.786;2023-05-10T08:44:20;12.10;99.90
33803;DHT22;20110;53.120;5.786;2023-05-10T08:46:46;12.20;99.90
33803;DHT22;20110;53.120;5.786;2023-05-10T08:49:20;12.30;99.90
33803;DHT22;20110;53.120;5.786;2023-05-10T08:51:52;12.60;99.90
33803;DHT22;20110;53.120;5.786;2023-05-10T08:54:21;12.80;99.90
33803;DHT22;20110;53.120;5.786;2023-05-10T08:56:47;13.00;99.90
33803;DHT22;20110;53.120;5.786;2023-05-10T08:59:13;13.10;99.90
33803;DHT22;20110;53.120;5.786;2023-05-10T09:01:40;13.20;99.90
33803;DHT22;20110;53.120;5.786;2023-05-10T09:04:09;13.10;99.90
33803;DHT22;20110;53.120;5.786;2023-05-10T09:06:36;13.00;99.90
33803;DHT22;20110;53.120;5.786;2023-05-10T09:09:02;13.10;99.90
33803;DHT22;20110;53.120;5.786;2023-05-10T09:11:28;13.10;99.90
33803;DHT22;20110;53.120;5.786;2023-05-10T09:13:55;13.10;99.90
33803;DHT22;20110;53.120;5.786;2023-05-10T09:16:22;13.00;99.90
33803;DHT22;20110;53.120;5.786;2023-05-10T09:18:48;13.10;99.90
33803;DHT22;20110;53.120;5.786;2023-05-10T09:21:15;13.00;99.90
33803;DHT22;20110;53.120;5.786;2023-05-10T09:23:45;13.00;99.90
33803;DHT22;20110;53.120;5.786;2023-05-10T09:26:12;12.70;99.90
33803;DHT22;20110;53.120;5.786;2023-05-10T09:28:56;12.70;99.90
33803;DHT22;20110;53.120;5.786;2023-05-10T09:31:23;12.80;99.90
33803;DHT22;20110;53.120;5.786;2023-05-10T09:33:53;13.00;99.90
33803;DHT22;20110;53.120;5.786;2023-05-10T09:36:19;13.10;99.90
33803;DHT22;20110;53.120;5.786;2023-05-10T09:38:46;13.10;99.90
33803;DHT22;20110;53.120;5.786;2023-05-10T09:41:22;13.30;99.90
33803;DHT22;20110;53.120;5.786;2023-05-10T09:43:49;13.30;99.90
33803;DHT22;20110;53.120;5.786;2023-05-10T09:46:15;13.10;1.00
33803;DHT22;20110;53.120;5.786;2023-05-10T09:48:44;13.30;1.00
33803;DHT22;20110;53.120;5.786;2023-05-10T09:51:24;13.40;1.00
33803;DHT22;20110;53.120;5.786;2023-05-10T09:54:15;13.20;99.90
33803;DHT22;20110;53.120;5.786;2023-05-10T09:56:42;13.00;99.90
33803;DHT22;20110;53.120;5.786;2023-05-10T09:59:11;13.20;99.90
33803;DHT22;20110;53.120;5.786;2023-05-10T10:01:38;13.30;99.90
33803;DHT22;20110;53.120;5.786;2023-05-10T10:04:06;13.50;99.90
33803;DHT22;20110;53.120;5.786;2023-05-10T10:06:40;13.50;99.90
33803;DHT22;20110;53.120;5.786;2023-05-10T10:09:06;13.30;99.90
33803;DHT22;20110;53.120;5.786;2023-05-10T10:11:37;13.50;99.90
33803;DHT22;20110;53.120;5.786;2023-05-10T10:14:04;13.70;99.90
33803;DHT22;20110;53.120;5.786;2023-05-10T10:16:31;13.80;99.90
33803;DHT22;20110;53.120;5.786;2023-05-10T10:18:58;13.50;1.00
33803;DHT22;20110;53.120;5.786;2023-05-10T10:21:24;13.60;89.50
33803;DHT22;20110;53.120;5.786;2023-05-10T10:23:51;13.70;99.90
33803;DHT22;20110;53.120;5.786;2023-05-10T10:26:19;13.80;89.90
33803;DHT22;20110;53.120;5.786;2023-05-10T10:29:00;14.00;1.00
33803;DHT22;20110;53.120;5.786;2023-05-10T10:31:38;14.00;1.00
33803;DHT22;20110;53.120;5.786;2023-05-10T10:34:08;14.20;1.00
33803;DHT22;20110;53.120;5.786;2023-05-10T10:36:46;14.30;99.90
33803;DHT22;20110;53.120;5.786;2023-05-10T10:39:13;14.10;99.90
33803;DHT22;20110;53.120;5.786;2023-05-10T10:41:49;13.90;99.90
33803;DHT22;20110;53.120;5.786;2023-05-10T10:52:25;13.80;99.90
33803;DHT22;20110;53.120;5.786;2023-05-10T10:55:16;14.00;99.90
33803;DHT22;20110;53.120;5.786;2023-05-10T10:57:47;14.20;99.90
33803;DHT22;20110;53.120;5.786;2023-05-10T11:00:33;14.80;99.90
33803;DHT22;20110;53.120;5.786;2023-05-10T11:03:05;15.10;1.00
33803;DHT22;20110;53.120;5.786;2023-05-10T11:05:48;15.20;1.00
33803;DHT22;20110;53.120;5.786;2023-05-10T11:08:19;14.70;99.90
33803;DHT22;20110;53.120;5.786;2023-05-10T11:18:40;15.30;1.00
33803;DHT22;20110;53.120;5.786;2023-05-10T11:21:09;15.20;99.90
33803;DHT22;20110;53.120;5.786;2023-05-10T11:26:14;14.50;99.90
33803;DHT22;20110;53.120;5.786;2023-05-10T11:28:44;14.50;99.90
33803;DHT22;20110;53.120;5.786;2023-05-10T11:31:15;14.70;1.00
33803;DHT22;20110;53.120;5.786;2023-05-10T11:33:49;14.80;1.00
33803;DHT22;20110;53.120;5.786;2023-05-10T11:36:19;14.90;99.90
33803;DHT22;20110;53.120;5.786;2023-05-10T11:38:56;14.90;99.90
33803;DHT22;20110;53.120;5.786;2023-05-10T11:41:23;14.80;99.90
33803;DHT22;20110;53.120;5.786;2023-05-10T11:43:51;14.70;99.90
33803;DHT22;20110;53.120;5.786;2023-05-10T11:46:21;14.80;99.90
33803;DHT22;20110;53.120;5.786;2023-05-10T11:49:00;14.90;99.90
33803;DHT22;20110;53.120;5.786;2023-05-10T11:51:27;15.00;99.90
33803;DHT22;20110;53.120;5.786;2023-05-10T11:53:54;15.10;99.90
33803;DHT22;20110;53.120;5.786;2023-05-10T11:56:21;15.00;99.90
33803;DHT22;20110;53.120;5.786;2023-05-10T11:58:56;15.30;99.90
33803;DHT22;20110;53.120;5.786;2023-05-10T12:01:24;15.80;99.90
33803;DHT22;20110;53.120;5.786;2023-05-10T12:03:53;15.30;99.90
33803;DHT22;20110;53.120;5.786;2023-05-10T12:06:20;15.70;99.90
33803;DHT22;20110;53.120;5.786;2023-05-10T12:08:48;16.00;99.90
33803;DHT22;20110;53.120;5.786;2023-05-10T12:11:19;16.30;99.90
33803;DHT22;20110;53.120;5.786;2023-05-10T12:13:47;16.70;99.90
33803;DHT22;20110;53.120;5.786;2023-05-10T12:16:18;16.90;99.90
33803;DHT22;20110;53.120;5.786;2023-05-10T12:18:48;16.50;96.70
33803;DHT22;20110;53.120;5.786;2023-05-10T12:21:21;16.80;99.90
33803;DHT22;20110;53.120;5.786;2023-05-10T12:23:52;16.90;99.90
33803;DHT22;20110;53.120;5.786;2023-05-10T12:26:23;16.80;81.20
33803;DHT22;20110;53.120;5.786;2023-05-10T12:28:50;16.10;91.50
33803;DHT22;20110;53.120;5.786;2023-05-10T12:31:16;16.20;80.60
33803;DHT22;20110;53.120;5.786;2023-05-10T12:33:43;16.20;96.40
33803;DHT22;20110;53.120;5.786;2023-05-10T12:36:13;16.60;99.90
33803;DHT22;20110;53.120;5.786;2023-05-10T12:38:46;16.20;99.90
33803;DHT22;20110;53.120;5.786;2023-05-10T12:41:17;16.20;99.90
33803;DHT22;20110;53.120;5.786;2023-05-10T12:43:43;16.40;99.90
33803;DHT22;20110;53.120;5.786;2023-05-10T12:46:17;16.60;99.60
33803;DHT22;20110;53.120;5.786;2023-05-10T12:48:44;16.50;56.80
33803;DHT22;20110;53.120;5.786;2023-05-10T12:51:11;16.50;69.90
33803;DHT22;20110;53.120;5.786;2023-05-10T12:53:40;16.10;29.00
33803;DHT22;20110;53.120;5.786;2023-05-10T12:56:06;16.30;70.20
33803;DHT22;20110;53.120;5.786;2023-05-10T12:58:32;16.40;37.40
33803;DHT22;20110;53.120;5.786;2023-05-10T13:00:59;16.60;39.50
33803;DHT22;20110;53.120;5.786;2023-05-10T13:03:25;16.70;38.60
33803;DHT22;20110;53.120;5.786;2023-05-10T13:05:51;16.70;59.10
33803;DHT22;20110;53.120;5.786;2023-05-10T13:08:17;16.50;17.20
33803;DHT22;20110;53.120;5.786;2023-05-10T13:10:43;16.80;18.80
33803;DHT22;20110;53.120;5.786;2023-05-10T13:13:09;16.80;1.00
33803;DHT22;20110;53.120;5.786;2023-05-10T13:15:35;16.60;1.00
33803;DHT22;20110;53.120;5.786;2023-05-10T13:18:01;16.70;1.00
33803;DHT22;20110;53.120;5.786;2023-05-10T13:20:27;16.60;1.00
33803;DHT22;20110;53.120;5.786;2023-05-10T13:22:53;16.60;1.00
33803;DHT22;20110;53.120;5.786;2023-05-10T13:25:19;16.60;1.00
33803;DHT22;20110;53.120;5.786;2023-05-10T13:27:45;16.70;1.00
33803;DHT22;20110;53.120;5.786;2023-05-10T13:30:11;17.00;1.00
33803;DHT22;20110;53.120;5.786;2023-05-10T13:32:37;16.80;1.00
33803;DHT22;20110;53.120;5.786;2023-05-10T13:35:04;16.30;2.90
33803;DHT22;20110;53.120;5.786;2023-05-10T13:37:31;15.80;86.90
33803;DHT22;20110;53.120;5.786;2023-05-10T13:40:00;15.50;99.90
33803;DHT22;20110;53.120;5.786;2023-05-10T13:42:27;15.10;99.90
33803;DHT22;20110;53.120;5.786;2023-05-10T13:44:52;14.80;99.90
33803;DHT22;20110;53.120;5.786;2023-05-10T13:47:18;14.70;99.90
33803;DHT22;20110;53.120;5.786;2023-05-10T13:49:44;14.60;99.90
33803;DHT22;20110;53.120;5.786;2023-05-10T13:52:10;14.70;99.90
33803;DHT22;20110;53.120;5.786;2023-05-10T13:54:36;14.70;99.90
33803;DHT22;20110;53.120;5.786;2023-05-10T13:57:03;14.80;99.90
33803;DHT22;20110;53.120;5.786;2023-05-10T13:59:30;14.90;99.90
33803;DHT22;20110;53.120;5.786;2023-05-10T14:02:00;15.00;99.90
33803;DHT22;20110;53.120;5.786;2023-05-10T14:04:29;15.10;99.90
33803;DHT22;20110;53.120;5.786;2023-05-10T14:06:56;15.10;99.90
33803;DHT22;20110;53.120;5.786;2023-05-10T14:09:21;15.00;99.90
33803;DHT22;20110;53.120;5.786;2023-05-10T14:11:47;15.10;99.90
33803;DHT22;20110;53.120;5.786;2023-05-10T14:14:13;15.40;99.90
33803;DHT22;20110;53.120;5.786;2023-05-10T14:16:43;15.50;99.90
33803;DHT22;20110;53.120;5.786;2023-05-10T14:19:10;15.40;99.90
33803;DHT22;20110;53.120;5.786;2023-05-10T14:21:36;15.30;99.90
33803;DHT22;20110;53.120;5.786;2023-05-10T14:24:02;15.20;99.90
33803;DHT22;20110;53.120;5.786;2023-05-10T14:26:28;15.20;99.90
33803;DHT22;20110;53.120;5.786;2023-05-10T14:28:54;14.10;34.90
33803;DHT22;20110;53.120;5.786;2023-05-10T14:31:20;13.90;99.90
33803;DHT22;20110;53.120;5.786;2023-05-10T14:33:49;14.20;99.90
33803;DHT22;20110;53.120;5.786;2023-05-10T14:36:15;14.80;99.90
33803;DHT22;20110;53.120;5.786;2023-05-10T14:38:41;15.00;99.90
33803;DHT22;20110;53.120;5.786;2023-05-10T14:41:07;15.00;99.90
33803;DHT22;20110;53.120;5.786;2023-05-10T14:43:33;15.00;99.90
33803;DHT22;20110;53.120;5.786;2023-05-10T14:45:58;14.40;99.90
33803;DHT22;20110;53.120;5.786;2023-05-10T14:48:24;13.90;99.90
33803;DHT22;20110;53.120;5.786;2023-05-10T14:50:50;13.50;99.90
33803;DHT22;20110;53.120;5.786;2023-05-10T14:53:17;13.20;99.90
33803;DHT22;20110;53.120;5.786;2023-05-10T14:55:43;13.10;99.90
33803;DHT22;20110;53.120;5.786;2023-05-10T14:58:09;13.80;22.60
33803;DHT22;20110;53.120;5.786;2023-05-10T15:00:35;14.30;1.00
33803;DHT22;20110;53.120;5.786;2023-05-10T15:03:01;14.80;1.00
33803;DHT22;20110;53.120;5.786;2023-05-10T15:05:27;14.80;99.90
33803;DHT22;20110;53.120;5.786;2023-05-10T15:07:53;14.60;99.90
33803;DHT22;20110;53.120;5.786;2023-05-10T15:10:19;14.90;99.90
33803;DHT22;20110;53.120;5.786;2023-05-10T15:12:44;14.80;99.90
33803;DHT22;20110;53.120;5.786;2023-05-10T15:15:10;14.90;99.90
33803;DHT22;20110;53.120;5.786;2023-05-10T15:17:36;15.20;99.90
33803;DHT22;20110;53.120;5.786;2023-05-10T15:20:02;15.40;99.90
33803;DHT22;20110;53.120;5.786;2023-05-10T15:22:29;15.60;99.90
33803;DHT22;20110;53.120;5.786;2023-05-10T15:24:57;15.80;99.90
33803;DHT22;20110;53.120;5.786;2023-05-10T15:27:25;15.60;99.90
33803;DHT22;20110;53.120;5.786;2023-05-10T15:29:52;15.30;99.90
33803;DHT22;20110;53.120;5.786;2023-05-10T15:32:18;15.10;99.90
33803;DHT22;20110;53.120;5.786;2023-05-10T15:34:44;15.10;99.90
33803;DHT22;20110;53.120;5.786;2023-05-10T15:37:10;14.90;99.90
33803;DHT22;20110;53.120;5.786;2023-05-10T15:39:36;15.00;99.90
33803;DHT22;20110;53.120;5.786;2023-05-10T15:42:02;15.00;99.90
33803;DHT22;20110;53.120;5.786;2023-05-10T15:44:28;15.20;99.90
33803;DHT22;20110;53.120;5.786;2023-05-10T15:46:54;15.40;99.90
33803;DHT22;20110;53.120;5.786;2023-05-10T15:49:20;15.20;99.90
33803;DHT22;20110;53.120;5.786;2023-05-10T15:51:46;15.30;99.90
33803;DHT22;20110;53.120;5.786;2023-05-10T15:54:11;15.30;99.90
33803;DHT22;20110;53.120;5.786;2023-05-10T15:56:37;15.00;99.90
33803;DHT22;20110;53.120;5.786;2023-05-10T15:59:03;15.00;99.90
33803;DHT22;20110;53.120;5.786;2023-05-10T16:01:30;14.70;99.90
33803;DHT22;20110;53.120;5.786;2023-05-10T16:03:57;14.90;99.90
33803;DHT22;20110;53.120;5.786;2023-05-10T16:06:23;15.10;99.90
33803;DHT22;20110;53.120;5.786;2023-05-10T16:08:49;15.50;99.90